Flight Track Log - Related Links

Times and Time Zones

All times are in EST time to prevent confusion due to time zone crossing. See the CPZ5689 flight status page for this flight to view local times or setup timezone preferences in your user account.

Time Position Orientation Groundspeed Altitude Reporting Facility
EST Latitude Longitude Course Direction KTS MPH feet Rate Location/Type
Fri 08:42:10 PM 42.0167 -87.9667 345° North 147 169 2,600  Level Chicago TRACON
Fri 08:43:10 PM 42.0500 -88.0167 312° West 222 255 4,100 1,250 Climbing Chicago TRACON
Fri 08:44:00 PM 42.3478 -88.0161 350° North  Level FlightAware Approximate
Fri 08:44:10 PM 42.1167 -88.0333 349° North 235 270 5,100  Level Chicago TRACON
Fri 08:45:00 PM 42.4320 -88.0531 352° North  Level FlightAware Approximate
Fri 08:45:23 PM 42.1847 -88.0372 358° North 238 274 6,500  Level Chicago Center
Fri 08:46:00 PM 42.5247 -88.0862 345° North  Level FlightAware Approximate
Fri 08:46:25 PM 42.2536 -88.0350 North 248 285 9,100  Level Chicago Center
Fri 08:47:00 PM 42.6161 -88.1188 345° North  Level FlightAware Approximate
Fri 08:47:27 PM 42.3397 -88.0333 North 286 329 11,200  Level Chicago Center
Fri 08:48:29 PM 42.4278 -88.0425 356° North 317 365 13,700 2,371 Climbing Chicago Center
Fri 08:49:31 PM 42.5144 -88.0736 345° North 321 369 16,100 2,468 Climbing Chicago Center
Fri 08:50:33 PM 42.6244 -88.1125 345° North 340 391 18,800 2,323 Climbing Chicago Center
Fri 08:51:35 PM 42.7197 -88.1464 345° North 353 406 20,900 1,935 Climbing Chicago Center
Fri 08:52:37 PM 42.8183 -88.1814 345° North 363 418 22,800 1,742 Climbing Chicago Center
Fri 08:53:39 PM 42.8931 -88.2736 318° Northwest 366 421 24,500 1,548 Climbing Chicago Center
Fri 08:54:41 PM 42.9664 -88.3767 314° West 374 430 26,000 1,403 Climbing Chicago Center
Fri 08:55:43 PM 43.0397 -88.4786 315° West 375 432 27,400 1,161 Climbing Chicago Center
Fri 08:56:45 PM 43.1161 -88.5833 315° West 381 438 28,400 1,210 Climbing Chicago Center
Fri 08:57:47 PM 43.2103 -88.7139 315° West 396 456 29,900 774 Climbing Chicago Center
Fri 08:58:49 PM 43.2869 -88.8239 314° West 397 457 30,000 48 Climbing Chicago Center
Fri 08:59:52 PM 43.3647 -88.9339 314° West 398 458 30,000  Level Chicago Center
Fri 09:00:54 PM 43.4400 -89.0425 314° West 393 452 30,000  Level Chicago Center
Fri 09:01:56 PM 43.5158 -89.1503 314° West 391 450 30,000  Level Chicago Center
Fri 09:02:58 PM 43.5917 -89.2578 314° West 391 450 30,000  Level Chicago Center
Fri 09:04:00 PM 43.6678 -89.3672 314° West 394 453 30,000  Level Chicago Center
Fri 09:05:02 PM 43.7594 -89.4981 314° West 395 455 30,000  Level Chicago Center
Fri 09:06:04 PM 43.8336 -89.6075 313° West 391 450 30,000  Level Chicago Center
Fri 09:07:06 PM 43.9078 -89.7150 314° West 388 447 30,000  Level Chicago Center
Fri 09:08:08 PM 43.9800 -89.8222 313° West 383 441 30,000  Level Chicago Center
Fri 09:09:10 PM 44.0550 -89.9300 314° West 387 445 30,000  Level Chicago Center
Fri 09:10:12 PM 44.1242 -90.0472 309° West 392 451 30,000  Level Chicago Center
Fri 09:11:07 PM 44.1889 -90.1639 308° West 385 443 30,000  Level Minneapolis Center
Fri 09:12:09 PM 44.2542 -90.2839 307° West 388 447 30,000  Level Minneapolis Center
Fri 09:13:11 PM 44.3200 -90.4028 308° West 388 447 30,000 -581 Level Minneapolis Center
Fri 09:14:13 PM 44.3975 -90.5439 308° West 384 442 28,800 -1,065 Descending Minneapolis Center
Fri 09:15:15 PM 44.4578 -90.6575 307° West 369 425 27,800 -960 Descending Minneapolis Center
Fri 09:16:18 PM 44.5189 -90.7703 307° West 365 420 26,800 -960 Descending Minneapolis Center
Fri 09:17:20 PM 44.5786 -90.8783 308° West 355 409 25,800 -1,016 Descending Minneapolis Center
Fri 09:18:22 PM 44.6408 -90.9964 307° West 350 403 24,700 -871 Descending Minneapolis Center
Fri 09:19:24 PM 44.6983 -91.1033 307° West 347 399 24,000 -339 Descending Minneapolis Center
Fri 09:20:26 PM 44.7542 -91.2103 306° West 342 394 24,000  Level Minneapolis Center
Fri 09:21:28 PM 44.7894 -91.3378 291° West 350 403 24,000 -774 Level Minneapolis Center
Fri 09:22:30 PM 44.8314 -91.4903 291° West 349 402 22,400 -1,645 Descending Minneapolis Center
Fri 09:23:32 PM 44.8653 -91.6119 291° West 342 394 20,600 -1,694 Descending Minneapolis Center
Fri 09:24:34 PM 44.8975 -91.7311 291° West 330 380 18,900 -1,694 Descending Minneapolis Center
Fri 09:25:36 PM 44.9289 -91.8453 291° West 315 362 17,100 -1,694 Descending Minneapolis Center
Fri 09:26:38 PM 44.9603 -91.9614 291° West 319 367 15,400 -1,694 Descending Minneapolis Center
Fri 09:27:40 PM 44.9556 -92.0908 267° West 353 406 13,600 -1,984 Descending Minneapolis Center
Fri 09:28:42 PM 44.9225 -92.2456 253° West 344 396 11,300 -1,306 Descending Minneapolis Center
Fri 09:29:44 PM 44.8944 -92.3725 253° West 340 391 10,900 -387 Descending Minneapolis Center
Fri 09:30:46 PM 44.8667 -92.4981 253° West 336 387 10,500 -823 Descending Minneapolis Center
Fri 09:31:48 PM 44.8419 -92.6075 252° West 300 345 9,200 -1,452 Descending Minneapolis Center
Fri 09:32:50 PM 44.8186 -92.7097 252° West 279 321 7,500 -1,597 Descending Minneapolis Center
Fri 09:33:52 PM 44.7981 -92.8086 254° West 267 307 5,900 -1,707 Descending Minneapolis Center
Fri 09:34:53 PM 44.8108 -92.9192 279° West 242 278 4,000 -1,317 Descending Minneapolis Center
Fri 09:35:55 PM 44.8178 -92.9969 277° West 206 237 3,200 -484 Descending Minneapolis Center
Fri 09:36:57 PM 44.8258 -93.0664 279° West 185 213 3,000 -484 Descending Minneapolis Center
Fri 09:37:59 PM 44.8486 -93.1181 302° West 156 180 2,200 -726 Descending Minneapolis Center
Fri 09:39:01 PM 44.8664 -93.1589 302° West 127 146 1,500 -677 Descending Minneapolis Center

Login

Don't have an account? Register now (free) for customized features, flight alerts, and more!